ENSD/SDN METAR and TAF weather

Enter ICAO airport designator
Station Type Date Time Source
ENSD METAR 2019/10/16 18:50 UTC NOAA

ENSD 161850Z 10003KT 060V170 9999 FEW043 BKN055 08/07 Q1004 RMK WIND 1138FT 08005KT


Station Type Date Time Source
ENSD Decoded METAR 2019/10/16 18:50 UTC NOAA

Sandane / Anda, Norway (ENSD) 61-50N 006-07E 60M
Oct 16, 2019 - 02:50 PM EDT / 2019.10.16 1850 UTC
Wind: from the E (100 degrees) at 3 MPH (3 KT) (direction variable):0
Visibility: greater than 7 mile(s):0
Sky conditions: mostly cloudy
Temperature: 46 F (8 C)
Dew Point: 44 F (7 C)
Relative Humidity: 93%
Pressure (altimeter): 29.65 in. Hg (1004 hPa)
ob: ENSD 161850Z 10003KT 060V170 9999 FEW043 BKN055 08/07 Q1004 RMK WIND 1138FT 08005KT
cycle: 19

Station Type Date Time Source
ENSD TAF UTC NOAA

Error!

Example: see airport list